Time;durP1;ratioP1;P1;durP2;ratioP2;P2;SDS_P1;SDS_P2;PMS_P1;PMS_P2;Temp;Humidity;BMP_temperature;BMP_pressure;BME280_temperature;BME280_humidity;BME280_pressure;Samples;Min_cycle;Max_cycle;Signal;HPM_P1;HPM_P2
2022/07/05 00:01:41;;;;;;;17.90;10.10;;;;;;;;;;6341905;28;20040;-90
2022/07/05 00:04:43;;;;;;;5.05;3.08;;;;;;;;;;6344018;28;20280;-90
2022/07/05 00:07:45;;;;;;;3.40;1.63;;;;;;;;;;6340717;28;20268;-91
2022/07/05 00:10:47;;;;;;;2.88;1.70;;;;;;;;;;6337793;27;20051;-93
2022/07/05 00:13:50;;;;;;;2.45;1.40;;;;;;;;;;6342197;28;20063;-90
2022/07/05 00:16:52;;;;;;;;;;;;;;;;;;6340856;28;20055;-88
2022/07/05 00:19:53;;;;;;;6.55;1.40;;;;;;;;;;6339824;28;19975;-92
2022/07/05 00:22:55;;;;;;;2.67;1.48;;;;;;;;;;6342735;28;20056;-91
2022/07/05 00:25:57;;;;;;;3.10;1.30;;;;;;;;;;6340647;28;20047;-90
2022/07/05 00:29:00;;;;;;;4.85;1.23;;;;;;;;;;6338142;28;20050;-90
2022/07/05 00:32:02;;;;;;;4.88;1.50;;;;;;;;;;6345240;28;20391;-87
2022/07/05 00:35:04;;;;;;;2.92;1.30;;;;;;;;;;6345085;27;20069;-89
2022/07/05 00:38:06;;;;;;;2.37;1.30;;;;;;;;;;6326147;28;20054;-91
2022/07/05 00:41:08;;;;;;;2.30;1.35;;;;;;;;;;6339165;28;20458;-87
2022/07/05 00:44:13;;;;;;;8.45;2.10;;;;;;;;;;6336454;28;20051;-92
2022/07/05 00:47:17;;;;;;;6.55;1.63;;;;;;;;;;6339715;28;20101;-91
2022/07/05 00:50:19;;;;;;;3.47;1.73;;;;;;;;;;6341737;28;20066;-87
2022/07/05 00:53:20;;;;;;;2.60;1.27;;;;;;;;;;6346414;27;20226;-90
2022/07/05 00:56:24;;;;;;;1.75;1.13;;;;;;;;;;6342295;28;20051;-88
2022/07/05 00:59:28;;;;;;;2.72;1.48;;;;;;;;;;6339174;28;20048;-89
2022/07/05 01:02:29;;;;;;;;;;;;;;;;;;6342993;27;20064;-92
2022/07/05 01:05:33;;;;;;;3.05;1.40;;;;;;;;;;6342241;28;19927;-92
2022/07/05 01:08:36;;;;;;;2.88;1.30;;;;;;;;;;6347585;28;20043;-93
2022/07/05 01:11:38;;;;;;;3.85;1.33;;;;;;;;;;6340104;28;20057;-92
2022/07/05 01:14:42;;;;;;;1.60;1.20;;;;;;;;;;6341614;28;20060;-91
2022/07/05 01:17:44;;;;;;;2.75;1.35;;;;;;;;;;6343360;28;20112;-92
2022/07/05 01:20:45;;;;;;;4.22;1.55;;;;;;;;;;6339269;28;20085;-88
2022/07/05 01:23:49;;;;;;;9.43;2.05;;;;;;;;;;6343132;28;20048;-84
2022/07/05 01:26:50;;;;;;;;;;;;;;;;;;6338804;28;20059;-85
2022/07/05 01:29:52;;;;;;;5.97;2.00;;;;;;;;;;6344062;28;19916;-89
2022/07/05 01:32:54;;;;;;;4.50;2.28;;;;;;;;;;6336976;28;20064;-87
2022/07/05 01:35:56;;;;;;;2.78;2.25;;;;;;;;;;6345728;28;20061;-87
2022/07/05 01:39:00;;;;;;;7.40;2.85;;;;;;;;;;6344515;28;20047;-85
2022/07/05 01:42:02;;;;;;;5.97;2.60;;;;;;;;;;6337512;28;20109;-88
2022/07/05 01:45:04;;;;;;;3.00;2.33;;;;;;;;;;6338111;28;20049;-90
2022/07/05 01:48:09;;;;;;;3.20;1.92;;;;;;;;;;6338593;28;20048;-91
2022/07/05 01:51:21;;;;;;;4.90;2.65;;;;;;;;;;6327017;28;20272;-91
2022/07/05 01:54:28;;;;;;;6.13;2.20;;;;;;;;;;6343785;27;20082;-84
2022/07/05 01:57:30;;;;;;;6.18;2.35;;;;;;;;;;6341216;28;20135;-91
2022/07/05 02:00:31;;;;;;;3.83;1.90;;;;;;;;;;6340749;28;20055;-88
2022/07/05 02:03:34;;;;;;;4.88;2.22;;;;;;;;;;6339627;28;20047;-92
2022/07/05 02:06:36;;;;;;;4.40;2.33;;;;;;;;;;6343480;28;20050;-90
2022/07/05 02:09:39;;;;;;;6.00;2.30;;;;;;;;;;6344376;28;20040;-90
2022/07/05 02:12:41;;;;;;;3.00;2.05;;;;;;;;;;6326355;28;20112;-91
2022/07/05 02:15:43;;;;;;;5.32;2.42;;;;;;;;;;6341838;28;20048;-92
2022/07/05 02:18:45;;;;;;;4.32;2.58;;;;;;;;;;6341597;28;20052;-93
2022/07/05 02:21:46;;;;;;;4.25;2.20;;;;;;;;;;6345411;28;20070;-93
2022/07/05 02:24:49;;;;;;;4.18;2.50;;;;;;;;;;6343080;28;20051;-93
2022/07/05 02:27:52;;;;;;;4.85;2.28;;;;;;;;;;6345150;28;20047;-90
2022/07/05 02:30:54;;;;;;;5.85;2.55;;;;;;;;;;6325095;28;20111;-91
2022/07/05 02:33:56;;;;;;;4.63;2.55;;;;;;;;;;6347088;28;20047;-90
2022/07/05 02:36:57;;;;;;;4.40;2.47;;;;;;;;;;6343136;27;20096;-92
2022/07/05 02:40:00;;;;;;;5.18;2.33;;;;;;;;;;6342790;28;20055;-93
2022/07/05 02:43:02;;;;;;;5.40;2.30;;;;;;;;;;6342820;28;20064;-90
2022/07/05 02:46:04;;;;;;;5.20;2.53;;;;;;;;;;6327028;28;20039;-92
2022/07/05 02:49:06;;;;;;;6.80;2.30;;;;;;;;;;6341855;28;20054;-91
2022/07/05 02:52:08;;;;;;;9.88;2.90;;;;;;;;;;6320371;27;20053;-90
2022/07/05 02:55:11;;;;;;;5.82;2.50;;;;;;;;;;6340175;27;20048;-91
2022/07/05 02:58:13;;;;;;;;;;;;;;;;;;6338471;28;20055;-90
2022/07/05 03:01:15;;;;;;;7.68;2.75;;;;;;;;;;6336450;28;20198;-93
2022/07/05 03:04:16;;;;;;;4.93;2.47;;;;;;;;;;6338564;28;20082;-91
2022/07/05 03:07:18;;;;;;;4.20;2.60;;;;;;;;;;6328202;28;20035;-92
2022/07/05 03:10:21;;;;;;;4.65;2.53;;;;;;;;;;6348382;28;20043;-95
2022/07/05 03:13:23;;;;;;;5.32;2.70;;;;;;;;;;6340130;28;20108;-87
2022/07/05 03:16:25;;;;;;;3.75;3.13;;;;;;;;;;6338021;28;20050;-92
2022/07/05 03:19:26;;;;;;;4.55;3.08;;;;;;;;;;6340200;28;20052;-92
2022/07/05 03:22:28;;;;;;;4.97;3.00;;;;;;;;;;6340726;28;20043;-92
2022/07/05 03:25:31;;;;;;;5.65;2.70;;;;;;;;;;6344917;28;20093;-91
2022/07/05 03:28:33;;;;;;;5.35;3.00;;;;;;;;;;6338535;28;20126;-89
2022/07/05 03:31:35;;;;;;;5.97;2.80;;;;;;;;;;6341746;28;20257;-89
2022/07/05 03:34:38;;;;;;;5.20;2.55;;;;;;;;;;6342464;28;20044;-89
2022/07/05 03:37:40;;;;;;;9.40;3.28;;;;;;;;;;6345968;27;20253;-91
2022/07/05 03:40:43;;;;;;;4.85;3.03;;;;;;;;;;6343382;28;20040;-93
2022/07/05 03:43:44;;;;;;;6.13;2.72;;;;;;;;;;6346114;28;20387;-91
2022/07/05 03:46:46;;;;;;;5.57;2.67;;;;;;;;;;6348601;28;20039;-90
2022/07/05 03:49:48;;;;;;;4.18;2.92;;;;;;;;;;6344655;28;20054;-90
2022/07/05 03:52:50;;;;;;;8.07;2.80;;;;;;;;;;6343670;27;20343;-91
2022/07/05 03:55:53;;;;;;;3.45;2.65;;;;;;;;;;6346732;27;20051;-91
2022/07/05 03:58:55;;;;;;;5.28;2.78;;;;;;;;;;6345334;28;20047;-90
2022/07/05 04:01:56;;;;;;;3.45;2.45;;;;;;;;;;6342637;28;20059;-87
2022/07/05 04:04:58;;;;;;;3.55;2.35;;;;;;;;;;6346434;28;20054;-92
2022/07/05 04:08:00;;;;;;;4.85;2.60;;;;;;;;;;6346628;28;20323;-91
2022/07/05 04:11:03;;;;;;;4.20;2.55;;;;;;;;;;6347182;27;20300;-93
2022/07/05 04:14:05;;;;;;;4.05;2.70;;;;;;;;;;6343991;28;20055;-92
2022/07/05 04:17:06;;;;;;;7.55;2.55;;;;;;;;;;6345860;28;20052;-91
2022/07/05 04:20:09;;;;;;;6.63;2.92;;;;;;;;;;6342357;28;20062;-90
2022/07/05 04:23:11;;;;;;;5.50;2.40;;;;;;;;;;6344252;28;20051;-94
2022/07/05 04:26:15;;;;;;;5.68;2.38;;;;;;;;;;6343654;28;20131;-92
2022/07/05 04:29:17;;;;;;;11.60;2.47;;;;;;;;;;6346545;28;20273;-88
2022/07/05 04:32:19;;;;;;;6.80;2.72;;;;;;;;;;6341178;28;20048;-92
2022/07/05 04:35:21;;;;;;;3.83;2.38;;;;;;;;;;6344917;28;20230;-91
2022/07/05 04:38:22;;;;;;;4.43;2.28;;;;;;;;;;6343548;27;20056;-93
2022/07/05 04:41:25;;;;;;;5.85;2.40;;;;;;;;;;6343356;28;20264;-94
2022/07/05 04:44:27;;;;;;;4.88;2.17;;;;;;;;;;6342842;28;20415;-93
2022/07/05 04:47:29;;;;;;;3.63;2.45;;;;;;;;;;6340976;28;20044;-95
2022/07/05 04:50:31;;;;;;;6.53;2.58;;;;;;;;;;6342511;28;20093;-93
2022/07/05 04:53:33;;;;;;;5.72;2.58;;;;;;;;;;6344032;27;20322;-89
2022/07/05 04:56:36;;;;;;;3.13;2.30;;;;;;;;;;6338688;28;20047;-91
2022/07/05 04:59:38;;;;;;;6.60;2.80;;;;;;;;;;6343270;28;20048;-92
2022/07/05 05:02:40;;;;;;;4.28;2.80;;;;;;;;;;6346426;28;20059;-93
2022/07/05 05:05:41;;;;;;;4.07;2.60;;;;;;;;;;6341477;28;20353;-78
2022/07/05 05:08:43;;;;;;;6.35;2.58;;;;;;;;;;6341364;28;20039;-77
2022/07/05 05:11:46;;;;;;;5.45;2.70;;;;;;;;;;6343932;28;20281;-82
2022/07/05 05:14:48;;;;;;;3.05;2.13;;;;;;;;;;6345617;28;20061;-83
2022/07/05 05:17:50;;;;;;;3.75;2.40;;;;;;;;;;6339861;28;20220;-79
2022/07/05 05:20:51;;;;;;;5.57;2.58;;;;;;;;;;6342584;28;20048;-77
2022/07/05 05:23:53;;;;;;;2.83;2.22;;;;;;;;;;6338225;28;20051;-76
2022/07/05 05:26:56;;;;;;;7.75;2.30;;;;;;;;;;6339297;28;20155;-77
2022/07/05 05:29:58;;;;;;;5.18;2.80;;;;;;;;;;6342216;28;20097;-77
2022/07/05 05:32:59;;;;;;;6.05;2.42;;;;;;;;;;6344544;28;20276;-76
2022/07/05 05:36:01;;;;;;;4.60;2.20;;;;;;;;;;6343341;27;20054;-88
2022/07/05 05:39:03;;;;;;;4.13;2.20;;;;;;;;;;6343567;28;20054;-79
2022/07/05 05:42:07;;;;;;;6.20;2.53;;;;;;;;;;6338573;28;20050;-76
2022/07/05 05:45:10;;;;;;;6.20;2.60;;;;;;;;;;6339466;28;20039;-76
2022/07/05 05:48:12;;;;;;;9.02;3.15;;;;;;;;;;6341729;28;20063;-77
2022/07/05 05:51:13;;;;;;;6.63;2.33;;;;;;;;;;6341364;28;20338;-79
2022/07/05 05:54:15;;;;;;;5.93;2.55;;;;;;;;;;6342165;27;20101;-77
2022/07/05 05:57:18;;;;;;;5.43;2.10;;;;;;;;;;6340772;28;20207;-77
2022/07/05 06:00:21;;;;;;;4.50;2.30;;;;;;;;;;6341416;28;20269;-79
2022/07/05 06:03:24;;;;;;;8.20;2.92;;;;;;;;;;6343491;28;20051;-79
2022/07/05 06:06:26;;;;;;;2.70;1.98;;;;;;;;;;6339775;28;20054;-81
2022/07/05 06:09:28;;;;;;;7.10;2.10;;;;;;;;;;6332611;27;20054;-79
2022/07/05 06:12:31;;;;;;;4.65;2.13;;;;;;;;;;6337378;28;20108;-80
2022/07/05 06:15:33;;;;;;;5.35;1.80;;;;;;;;;;6340813;28;20097;-81
2022/07/05 06:18:34;;;;;;;7.03;2.10;;;;;;;;;;6337748;28;20330;-80
2022/07/05 06:21:36;;;;;;;3.25;1.80;;;;;;;;;;6342125;28;20048;-83
2022/07/05 06:24:38;;;;;;;5.40;2.30;;;;;;;;;;6337006;28;20047;-83
2022/07/05 06:27:42;;;;;;;3.80;1.60;;;;;;;;;;6339592;28;20040;-82
2022/07/05 06:30:43;;;;;;;4.82;1.70;;;;;;;;;;6339650;28;20084;-82
2022/07/05 06:33:45;;;;;;;6.00;1.95;;;;;;;;;;6337333;28;20182;-81
2022/07/05 06:36:47;;;;;;;4.10;1.70;;;;;;;;;;6341577;27;20052;-81
2022/07/05 06:39:48;;;;;;;2.78;1.48;;;;;;;;;;6341691;28;20052;-82
2022/07/05 06:42:53;;;;;;;4.05;2.00;;;;;;;;;;6340401;28;20137;-83
2022/07/05 06:45:55;;;;;;;3.63;1.83;;;;;;;;;;6342074;28;20047;-81
2022/07/05 06:48:57;;;;;;;3.13;1.58;;;;;;;;;;6336942;28;20058;-83
2022/07/05 06:51:59;;;;;;;6.13;1.80;;;;;;;;;;6340258;27;20231;-84
2022/07/05 06:55:02;;;;;;;4.18;2.60;;;;;;;;;;6343244;28;20884;-84
2022/07/05 06:58:06;;;;;;;4.70;2.10;;;;;;;;;;6343208;28;20258;-82
2022/07/05 07:01:08;;;;;;;2.70;2.03;;;;;;;;;;6342984;28;20359;-84
2022/07/05 07:04:10;;;;;;;6.10;2.67;;;;;;;;;;6339623;28;20109;-83
2022/07/05 07:10:27;;;;;;;5.97;2.35;;;;;;;;;;6335581;28;20097;-82
2022/07/05 07:13:30;;;;;;;3.80;1.90;;;;;;;;;;6341793;28;20044;-80
2022/07/05 07:16:32;;;;;;;4.03;2.08;;;;;;;;;;6340756;28;20116;-81
2022/07/05 07:19:34;;;;;;;4.97;2.28;;;;;;;;;;6341431;28;20051;-82
2022/07/05 07:22:36;;;;;;;4.90;1.77;;;;;;;;;;6337828;28;20063;-84
2022/07/05 07:25:37;;;;;;;3.28;1.83;;;;;;;;;;6340576;28;20056;-83
2022/07/05 07:28:41;;;;;;;7.82;1.88;;;;;;;;;;6341981;28;20060;-83
2022/07/05 07:31:42;;;;;;;4.30;1.70;;;;;;;;;;6344578;28;20036;-84
2022/07/05 07:34:44;;;;;;;3.15;1.50;;;;;;;;;;6341009;28;20055;-84
2022/07/05 07:37:46;;;;;;;2.80;1.70;;;;;;;;;;6340837;28;20042;-84
2022/07/05 07:40:47;;;;;;;5.65;2.22;;;;;;;;;;6339569;28;20264;-81
2022/07/05 07:43:50;;;;;;;4.05;1.70;;;;;;;;;;6339864;28;20055;-83
2022/07/05 07:46:52;;;;;;;5.20;2.05;;;;;;;;;;6339313;28;20060;-84
2022/07/05 07:49:54;;;;;;;8.35;1.95;;;;;;;;;;6339063;28;20075;-83
2022/07/05 07:52:55;;;;;;;4.38;1.80;;;;;;;;;;6349997;28;20051;-82
2022/07/05 07:55:57;;;;;;;5.63;1.67;;;;;;;;;;6341973;28;20059;-83
2022/07/05 07:59:00;;;;;;;3.60;1.60;;;;;;;;;;6340541;28;20384;-83
2022/07/05 08:02:02;;;;;;;3.40;1.70;;;;;;;;;;6336087;28;20074;-81
2022/07/05 08:05:05;;;;;;;3.42;1.48;;;;;;;;;;6312265;28;20045;-81
2022/07/05 08:08:06;;;;;;;;;;;;;;;;;;6316897;28;20048;-83
2022/07/05 08:11:10;;;;;;;5.03;1.83;;;;;;;;;;6312767;28;19920;-82
2022/07/05 08:14:13;;;;;;;4.60;1.95;;;;;;;;;;6315519;28;20747;-82
2022/07/05 08:17:14;;;;;;;3.67;1.40;;;;;;;;;;6313809;28;20303;-82
2022/07/05 08:23:35;;;;;;;3.45;1.60;;;;;;;;;;6319925;28;20047;-82
2022/07/05 08:26:38;;;;;;;4.63;1.83;;;;;;;;;;6317610;28;20335;-81
2022/07/05 08:29:41;;;;;;;8.73;2.05;;;;;;;;;;6314668;28;20051;-83
2022/07/05 08:32:43;;;;;;;6.47;2.20;;;;;;;;;;6314908;28;20227;-83
2022/07/05 08:35:44;;;;;;;4.30;2.10;;;;;;;;;;6316376;28;20062;-83
2022/07/05 08:38:46;;;;;;;5.93;1.70;;;;;;;;;;6321776;28;20052;-82
2022/07/05 08:41:49;;;;;;;4.60;1.92;;;;;;;;;;6317518;28;20043;-81
2022/07/05 08:44:53;;;;;;;4.10;1.60;;;;;;;;;;6318246;28;20347;-83
2022/07/05 08:47:57;;;;;;;4.50;2.03;;;;;;;;;;6290855;28;20355;-83
2022/07/05 08:50:59;;;;;;;4.18;2.00;;;;;;;;;;6319200;28;20095;-82
2022/07/05 08:54:01;;;;;;;2.03;1.67;;;;;;;;;;6318319;28;20051;-83
2022/07/05 08:57:03;;;;;;;8.33;1.90;;;;;;;;;;6316546;28;20272;-82
2022/07/05 09:00:07;;;;;;;8.50;1.88;;;;;;;;;;6318235;28;20463;-83
2022/07/05 09:03:09;;;;;;;4.07;2.00;;;;;;;;;;6316126;28;20044;-83
2022/07/05 09:06:13;;;;;;;4.47;1.80;;;;;;;;;;6318354;28;20044;-83
2022/07/05 09:09:18;;;;;;;4.22;2.35;;;;;;;;;;6318718;28;20346;-83
2022/07/05 09:12:20;;;;;;;4.43;2.10;;;;;;;;;;6314854;28;20327;-84
2022/07/05 09:15:24;;;;;;;3.05;2.05;;;;;;;;;;6315282;28;20791;-84
2022/07/05 09:18:42;;;;;;;4.15;2.20;;;;;;;;;;6317192;28;20044;-85
2022/07/05 09:21:44;;;;;;;3.42;2.10;;;;;;;;;;6317675;28;20220;-84
2022/07/05 09:24:45;;;;;;;5.60;2.27;;;;;;;;;;6315321;28;20051;-85
2022/07/05 09:27:55;;;;;;;5.68;2.00;;;;;;;;;;6318469;28;20346;-81
2022/07/05 09:30:58;;;;;;;5.40;2.38;;;;;;;;;;6318202;28;20060;-84
2022/07/05 09:34:07;;;;;;;5.88;2.40;;;;;;;;;;6313613;28;20044;-85
2022/07/05 09:37:09;;;;;;;5.25;2.30;;;;;;;;;;6319170;28;20113;-86
2022/07/05 09:40:11;;;;;;;6.32;2.58;;;;;;;;;;6317641;28;20040;-85
2022/07/05 09:43:14;;;;;;;3.72;2.55;;;;;;;;;;6323720;28;20052;-86
2022/07/05 09:46:17;;;;;;;6.28;2.67;;;;;;;;;;6314891;28;20040;-85
2022/07/05 09:49:26;;;;;;;3.28;2.20;;;;;;;;;;6319653;28;20046;-85
2022/07/05 09:52:29;;;;;;;4.20;2.20;;;;;;;;;;6311914;28;20048;-83
2022/07/05 09:55:32;;;;;;;5.85;2.85;;;;;;;;;;6315230;28;20098;-84
2022/07/05 09:58:34;;;;;;;3.47;2.50;;;;;;;;;;6317643;28;20256;-86
2022/07/05 10:01:37;;;;;;;4.43;2.60;;;;;;;;;;6319710;28;20052;-86
2022/07/05 10:04:39;;;;;;;6.90;2.72;;;;;;;;;;6313636;28;20052;-82
2022/07/05 10:07:44;;;;;;;4.65;2.47;;;;;;;;;;6317153;28;20048;-82
2022/07/05 10:10:47;;;;;;;7.75;2.55;;;;;;;;;;6315803;28;20066;-81
2022/07/05 10:13:50;;;;;;;6.68;3.67;;;;;;;;;;6316137;28;20066;-79
2022/07/05 10:16:58;;;;;;;3.33;2.78;;;;;;;;;;6302674;28;20056;-81
2022/07/05 10:20:01;;;;;;;3.50;2.40;;;;;;;;;;6311697;28;20287;-83
2022/07/05 10:23:03;;;;;;;4.55;2.78;;;;;;;;;;6310737;28;20052;-81
2022/07/05 10:26:05;;;;;;;3.75;2.40;;;;;;;;;;6311798;28;20126;-83
2022/07/05 10:29:08;;;;;;;5.57;2.70;;;;;;;;;;6311339;28;20059;-82
2022/07/05 10:32:12;;;;;;;4.40;2.50;;;;;;;;;;6314704;28;20060;-81
2022/07/05 10:35:14;;;;;;;6.13;2.70;;;;;;;;;;6315287;28;20047;-83
2022/07/05 10:38:16;;;;;;;2.75;2.28;;;;;;;;;;6316683;28;20055;-81
2022/07/05 10:41:20;;;;;;;4.57;2.50;;;;;;;;;;6309094;28;20052;-82
2022/07/05 10:44:31;;;;;;;4.15;2.40;;;;;;;;;;6314368;28;20052;-81
2022/07/05 10:47:34;;;;;;;3.80;2.45;;;;;;;;;;6315157;28;20075;-89
2022/07/05 10:50:44;;;;;;;4.55;2.17;;;;;;;;;;6316238;28;20060;-87
2022/07/05 10:54:09;;;;;;;4.47;2.17;;;;;;;;;;6317495;28;20055;-89
2022/07/05 10:57:24;;;;;;;5.20;2.33;;;;;;;;;;6298384;28;20044;-88
2022/07/05 11:00:26;;;;;;;3.00;2.28;;;;;;;;;;6305511;28;20313;-89
2022/07/05 11:03:36;;;;;;;3.65;2.50;;;;;;;;;;6310169;28;20071;-86
2022/07/05 11:06:41;;;;;;;13.85;9.50;;;;;;;;;;6316327;28;20051;-85
2022/07/05 11:09:59;;;;;;;7.18;3.65;;;;;;;;;;6309014;28;20169;-86
2022/07/05 11:13:19;;;;;;;12.38;10.38;;;;;;;;;;6315137;28;20040;-86
2022/07/05 11:16:21;;;;;;;7.68;4.93;;;;;;;;;;6311258;28;20060;-83
2022/07/05 11:19:24;;;;;;;;;;;;;;;;;;6305359;28;20108;-84
2022/07/05 11:22:26;;;;;;;4.35;2.17;;;;;;;;;;6312655;28;19935;-87
2022/07/05 11:25:30;;;;;;;39.13;26.17;;;;;;;;;;6312614;28;20314;-85
2022/07/05 11:28:43;;;;;;;4.63;3.85;;;;;;;;;;6314717;28;20274;-85
2022/07/05 11:31:45;;;;;;;50.85;35.83;;;;;;;;;;6313452;28;20056;-88
2022/07/05 11:34:49;;;;;;;6.60;5.25;;;;;;;;;;6315875;28;20063;-85
2022/07/05 11:37:58;;;;;;;7.70;3.05;;;;;;;;;;6313343;28;20056;-86
2022/07/05 11:41:13;;;;;;;10.10;7.85;;;;;;;;;;6306295;28;20055;-88
2022/07/05 11:44:16;;;;;;;7.78;6.95;;;;;;;;;;6307253;28;20381;-87
2022/07/05 11:47:18;;;;;;;8.80;2.95;;;;;;;;;;6309607;28;20385;-89
2022/07/05 11:50:26;;;;;;;5.22;2.55;;;;;;;;;;6306111;28;20048;-86
2022/07/05 11:53:29;;;;;;;7.13;2.60;;;;;;;;;;6312479;28;20044;-80
2022/07/05 11:56:30;;;;;;;5.63;2.53;;;;;;;;;;6315264;28;20132;-79
2022/07/05 11:59:32;;;;;;;3.33;2.00;;;;;;;;;;6315918;28;20320;-80
2022/07/05 12:02:44;;;;;;;2.25;1.60;;;;;;;;;;6317954;28;20048;-78
2022/07/05 12:05:47;;;;;;;3.92;2.30;;;;;;;;;;6314681;28;20048;-80
2022/07/05 12:08:48;;;;;;;5.18;2.28;;;;;;;;;;6316704;28;20044;-81
2022/07/05 12:15:11;;;;;;;4.68;2.38;;;;;;;;;;6313376;28;20199;-79
2022/07/05 12:18:14;;;;;;;3.45;2.45;;;;;;;;;;6315646;28;20051;-81
2022/07/05 12:21:17;;;;;;;4.85;2.55;;;;;;;;;;6315859;28;20044;-80
2022/07/05 12:24:19;;;;;;;6.00;2.17;;;;;;;;;;6318136;28;20051;-85
2022/07/05 12:27:21;;;;;;;4.70;1.98;;;;;;;;;;6316521;28;20044;-85
2022/07/05 12:30:23;;;;;;;3.72;2.00;;;;;;;;;;6319072;28;20053;-85
2022/07/05 12:33:24;;;;;;;3.78;2.30;;;;;;;;;;6317989;28;20052;-85
2022/07/05 12:36:27;;;;;;;4.88;2.10;;;;;;;;;;6319964;28;20039;-84
2022/07/05 12:39:29;;;;;;;4.35;2.15;;;;;;;;;;6317540;28;20054;-84
2022/07/05 12:42:32;;;;;;;3.40;2.20;;;;;;;;;;6319635;28;20110;-84
2022/07/05 12:45:34;;;;;;;4.32;1.92;;;;;;;;;;6315402;28;20071;-85
2022/07/05 12:48:37;;;;;;;4.85;2.10;;;;;;;;;;6315499;28;20225;-83
2022/07/05 12:51:41;;;;;;;2.45;2.08;;;;;;;;;;6320401;28;20103;-84
2022/07/05 12:58:02;;;;;;;7.57;2.42;;;;;;;;;;6316649;28;20044;-84
2022/07/05 13:01:19;;;;;;;3.55;2.20;;;;;;;;;;6316509;28;20048;-86
2022/07/05 13:04:21;;;;;;;2.75;2.03;;;;;;;;;;6314243;28;20086;-87
2022/07/05 13:07:27;;;;;;;3.75;2.20;;;;;;;;;;6312428;28;20052;-87
2022/07/05 13:10:31;;;;;;;6.63;2.15;;;;;;;;;;6317698;28;20093;-87
2022/07/05 13:13:33;;;;;;;5.18;1.88;;;;;;;;;;6316569;28;20056;-78
2022/07/05 13:16:35;;;;;;;3.70;1.90;;;;;;;;;;6315701;28;20048;-83
2022/07/05 13:19:37;;;;;;;4.38;2.00;;;;;;;;;;6316871;28;20048;-85
2022/07/05 13:22:40;;;;;;;4.28;1.77;;;;;;;;;;6315320;28;20055;-86
2022/07/05 13:25:42;;;;;;;4.63;2.00;;;;;;;;;;6315965;28;20105;-85
2022/07/05 13:28:43;;;;;;;2.60;1.83;;;;;;;;;;6313748;28;20044;-84
2022/07/05 13:31:45;;;;;;;1.95;1.45;;;;;;;;;;6315022;28;20059;-86
2022/07/05 13:34:48;;;;;;;2.58;1.77;;;;;;;;;;6315833;28;20052;-84
2022/07/05 13:37:51;;;;;;;5.13;2.25;;;;;;;;;;6317092;28;20048;-83
2022/07/05 13:40:53;;;;;;;4.55;1.95;;;;;;;;;;6314546;28;20056;-86
2022/07/05 13:43:54;;;;;;;3.67;1.90;;;;;;;;;;6319033;28;20059;-85
2022/07/05 13:46:56;;;;;;;4.18;1.77;;;;;;;;;;6313685;28;20048;-87
2022/07/05 13:53:15;;;;;;;37.58;32.92;;;;;;;;;;6310546;28;20374;-85
2022/07/05 13:56:16;;;;;;;4.55;3.85;;;;;;;;;;6310227;28;20051;-87
2022/07/05 13:59:18;;;;;;;2.25;1.90;;;;;;;;;;6315624;28;20055;-86
2022/07/05 14:02:20;;;;;;;5.35;1.83;;;;;;;;;;6310302;28;20056;-87
2022/07/05 14:05:21;;;;;;;4.15;1.70;;;;;;;;;;6314446;28;20055;-87
2022/07/05 14:08:25;;;;;;;1.90;1.50;;;;;;;;;;6299249;28;20051;-85
2022/07/05 14:11:27;;;;;;;3.65;1.80;;;;;;;;;;6311968;28;20361;-87
2022/07/05 14:14:28;;;;;;;;;;;;;;;;;;6312147;28;20064;-87
2022/07/05 14:17:30;;;;;;;2.40;1.30;;;;;;;;;;6308926;28;20673;-87
2022/07/05 14:20:32;;;;;;;3.25;1.60;;;;;;;;;;6312060;28;20345;-87
2022/07/05 14:23:35;;;;;;;2.22;1.30;;;;;;;;;;6311494;28;20044;-88
2022/07/05 14:26:39;;;;;;;3.63;1.73;;;;;;;;;;6310595;28;20257;-87
2022/07/05 14:29:41;;;;;;;2.10;1.67;;;;;;;;;;6309339;28;20239;-88
2022/07/05 14:32:42;;;;;;;3.25;1.70;;;;;;;;;;6314746;28;20047;-89
2022/07/05 14:35:44;;;;;;;2.70;1.58;;;;;;;;;;6312769;28;20107;-88
2022/07/05 14:38:47;;;;;;;3.90;1.73;;;;;;;;;;6309936;28;20094;-86
2022/07/05 14:41:49;;;;;;;2.38;1.42;;;;;;;;;;6315254;28;20048;-88
2022/07/05 14:44:51;;;;;;;2.58;1.58;;;;;;;;;;6315059;28;20046;-87
2022/07/05 14:47:53;;;;;;;4.72;1.95;;;;;;;;;;6310092;28;20055;-88
2022/07/05 14:50:55;;;;;;;2.42;1.60;;;;;;;;;;6313625;28;20048;-88
2022/07/05 14:53:58;;;;;;;3.40;1.55;;;;;;;;;;6316282;28;20063;-87
2022/07/05 14:57:00;;;;;;;4.32;2.08;;;;;;;;;;6312873;28;20098;-87
2022/07/05 15:00:02;;;;;;;3.00;1.50;;;;;;;;;;6318467;28;20052;-87
2022/07/05 15:03:06;;;;;;;5.18;1.88;;;;;;;;;;6311128;28;20068;-87
2022/07/05 15:06:08;;;;;;;3.25;1.55;;;;;;;;;;6309958;28;20409;-87
2022/07/05 15:09:11;;;;;;;4.50;1.45;;;;;;;;;;6312432;28;20040;-88
2022/07/05 15:12:13;;;;;;;2.70;1.55;;;;;;;;;;6317331;28;20052;-88
2022/07/05 15:15:15;;;;;;;3.85;1.60;;;;;;;;;;6313127;28;20215;-87
2022/07/05 15:18:17;;;;;;;3.15;1.45;;;;;;;;;;6313352;28;20044;-87
2022/07/05 15:21:18;;;;;;;2.40;1.53;;;;;;;;;;6314905;28;20056;-87
2022/07/05 15:24:21;;;;;;;2.93;1.40;;;;;;;;;;6313004;28;20114;-87
2022/07/05 15:27:24;;;;;;;5.55;1.50;;;;;;;;;;6311508;28;20508;-87
2022/07/05 15:30:26;;;;;;;5.43;1.70;;;;;;;;;;6314744;28;20147;-87
2022/07/05 15:33:29;;;;;;;4.70;1.60;;;;;;;;;;6321818;28;20235;-88
2022/07/05 15:36:32;;;;;;;3.70;1.60;;;;;;;;;;6319415;28;20449;-88
2022/07/05 15:39:36;;;;;;;3.45;1.80;;;;;;;;;;6320457;28;20040;-88
2022/07/05 15:42:38;;;;;;;3.92;1.50;;;;;;;;;;6316968;28;20250;-86
2022/07/05 15:45:40;;;;;;;4.97;1.67;;;;;;;;;;6318294;28;20048;-85
2022/07/05 15:48:42;;;;;;;5.80;1.97;;;;;;;;;;6315344;28;20067;-86
2022/07/05 15:51:44;;;;;;;3.90;1.85;;;;;;;;;;6318827;28;20523;-87
2022/07/05 15:54:47;;;;;;;4.68;1.70;;;;;;;;;;6324081;28;20056;-86
2022/07/05 15:57:49;;;;;;;2.20;1.55;;;;;;;;;;6320505;28;20353;-87
2022/07/05 16:00:50;;;;;;;5.07;1.67;;;;;;;;;;6316198;28;20290;-87
2022/07/05 16:03:52;;;;;;;3.38;1.45;;;;;;;;;;6317585;28;20056;-86
2022/07/05 16:06:54;;;;;;;3.70;2.60;;;;;;;;;;6319476;28;20385;-87
2022/07/05 16:09:57;;;;;;;4.53;1.50;;;;;;;;;;6317277;28;20052;-86
2022/07/05 16:12:58;;;;;;;2.03;1.35;;;;;;;;;;6316633;28;20052;-83
2022/07/05 16:16:12;;;;;;;1.53;1.40;;;;;;;;;;6318311;28;20060;-82
2022/07/05 16:19:14;;;;;;;2.80;1.58;;;;;;;;;;6314727;28;20052;-82
2022/07/05 16:22:16;;;;;;;3.42;1.50;;;;;;;;;;6318723;28;20056;-82
2022/07/05 16:25:19;;;;;;;5.30;1.80;;;;;;;;;;6317064;28;20078;-81
2022/07/05 16:28:21;;;;;;;2.25;1.50;;;;;;;;;;6316465;28;20074;-83
2022/07/05 16:31:23;;;;;;;5.50;1.60;;;;;;;;;;6317502;28;20076;-85
2022/07/05 16:34:25;;;;;;;6.63;2.00;;;;;;;;;;6318306;28;20052;-82
2022/07/05 16:37:27;;;;;;;2.23;1.50;;;;;;;;;;6320355;28;20338;-84
2022/07/05 16:40:30;;;;;;;3.37;1.63;;;;;;;;;;6319758;28;20055;-82
2022/07/05 16:43:32;;;;;;;2.92;1.52;;;;;;;;;;6318418;28;20098;-82
2022/07/05 16:46:34;;;;;;;5.07;1.60;;;;;;;;;;6316816;28;20055;-81
2022/07/05 16:49:35;;;;;;;3.80;1.70;;;;;;;;;;6318918;28;20327;-82
2022/07/05 16:52:39;;;;;;;4.93;1.57;;;;;;;;;;6324131;28;20055;-82
2022/07/05 16:55:42;;;;;;;2.83;1.63;;;;;;;;;;6326272;28;20052;-82
2022/07/05 16:58:45;;;;;;;4.95;1.55;;;;;;;;;;6316154;28;20079;-81
2022/07/05 17:01:47;;;;;;;3.17;1.70;;;;;;;;;;6314160;28;20663;-83
2022/07/05 17:04:49;;;;;;;1.80;1.53;;;;;;;;;;6314281;28;20097;-82
2022/07/05 17:07:50;;;;;;;4.50;1.67;;;;;;;;;;6315133;28;20059;-82
2022/07/05 17:10:54;;;;;;;3.97;1.38;;;;;;;;;;6317445;28;20040;-85
2022/07/05 17:13:57;;;;;;;2.67;1.80;;;;;;;;;;6312081;28;20052;-82
2022/07/05 17:16:59;;;;;;;2.78;1.60;;;;;;;;;;6312979;28;20309;-85
2022/07/05 17:20:00;;;;;;;4.77;1.70;;;;;;;;;;6312961;28;20060;-86
2022/07/05 17:23:02;;;;;;;4.77;1.83;;;;;;;;;;6295390;28;20056;-85
2022/07/05 17:26:06;;;;;;;3.40;1.50;;;;;;;;;;6311172;28;20467;-85
2022/07/05 17:29:08;;;;;;;2.88;1.30;;;;;;;;;;6315824;28;20040;-88
2022/07/05 17:32:10;;;;;;;3.37;1.47;;;;;;;;;;6314549;28;20113;-80
2022/07/05 17:35:11;;;;;;;2.70;1.47;;;;;;;;;;6312281;28;20351;-82
2022/07/05 17:38:13;;;;;;;1.60;1.27;;;;;;;;;;6318295;28;20327;-82
2022/07/05 17:41:16;;;;;;;2.90;1.73;;;;;;;;;;6317308;28;20058;-82
2022/07/05 17:44:18;;;;;;;2.95;1.33;;;;;;;;;;6316400;28;20934;-83
2022/07/05 17:47:20;;;;;;;3.43;1.43;;;;;;;;;;6320257;28;20349;-81
2022/07/05 17:50:21;;;;;;;3.90;1.40;;;;;;;;;;6314314;28;20044;-82
2022/07/05 17:53:23;;;;;;;2.22;1.40;;;;;;;;;;6318483;28;20274;-80
2022/07/05 17:56:26;;;;;;;4.73;1.60;;;;;;;;;;6314776;28;20055;-81
2022/07/05 17:59:28;;;;;;;2.50;1.67;;;;;;;;;;6315873;28;20318;-82
2022/07/05 18:02:30;;;;;;;2.00;1.50;;;;;;;;;;6315398;28;20044;-81
2022/07/05 18:05:31;;;;;;;3.45;1.55;;;;;;;;;;6315728;28;20052;-79
2022/07/05 18:08:33;;;;;;;3.40;1.30;;;;;;;;;;6312542;28;20051;-86
2022/07/05 18:11:37;;;;;;;2.58;1.20;;;;;;;;;;6318016;28;20108;-86
2022/07/05 18:14:38;;;;;;;4.28;1.58;;;;;;;;;;6314303;28;20335;-80
2022/07/05 18:17:40;;;;;;;2.80;1.40;;;;;;;;;;6315660;28;20050;-81
2022/07/05 18:20:43;;;;;;;3.07;1.50;;;;;;;;;;6313734;28;20056;-80
2022/07/05 18:23:45;;;;;;;4.15;1.60;;;;;;;;;;6316291;28;20059;-80
2022/07/05 18:26:48;;;;;;;4.03;1.80;;;;;;;;;;6313196;28;20053;-82
2022/07/05 18:29:50;;;;;;;1.95;1.38;;;;;;;;;;6311480;28;20327;-84
2022/07/05 18:32:51;;;;;;;2.63;1.30;;;;;;;;;;6313165;28;20317;-83
2022/07/05 18:35:53;;;;;;;4.05;1.70;;;;;;;;;;6309958;28;20270;-87